Time;durP1;ratioP1;P1;durP2;ratioP2;P2;SDS_P1;SDS_P2;PMS_P1;PMS_P2;Temp;Humidity;BMP_temperature;BMP_pressure;BME280_temperature;BME280_humidity;BME280_pressure;Samples;Min_cycle;Max_cycle;Signal;HPM_P1;HPM_P2
2023/04/10 00:02:07;;;;;;;12.13;6.68;;;2.40;99.90;;;;;;5047777;28;20390;-43
2023/04/10 00:04:33;;;;;;;12.02;6.80;;;2.40;99.90;;;;;;5042944;28;20036;-42
2023/04/10 00:06:59;;;;;;;13.35;6.55;;;2.30;99.90;;;;;;5054042;28;20037;-43
2023/04/10 00:09:25;;;;;;;12.35;7.13;;;2.20;99.90;;;;;;5036886;28;20676;-42
2023/04/10 00:11:50;;;;;;;9.93;6.32;;;2.20;99.90;;;;;;5042051;28;20025;-41
2023/04/10 00:14:21;;;;;;;13.65;7.50;;;2.20;99.90;;;;;;5046398;28;20051;-43
2023/04/10 00:16:47;;;;;;;10.70;7.18;;;2.20;99.90;;;;;;5048465;28;20466;-42
2023/04/10 00:19:13;;;;;;;14.52;7.07;;;2.10;99.90;;;;;;5043977;28;20025;-42
2023/04/10 00:21:39;;;;;;;11.65;6.88;;;2.10;99.90;;;;;;5046794;28;20613;-42
2023/04/10 00:24:05;;;;;;;12.55;6.35;;;2.10;99.90;;;;;;5040859;28;20017;-42
2023/04/10 00:26:30;;;;;;;7.57;5.25;;;2.20;99.90;;;;;;5048139;28;20424;-43
2023/04/10 00:28:56;;;;;;;8.15;6.32;;;2.10;99.90;;;;;;5046305;28;20036;-42
2023/04/10 00:31:21;;;;;;;8.15;6.00;;;1.90;99.90;;;;;;5044123;28;20402;-42
2023/04/10 00:33:47;;;;;;;10.20;5.90;;;1.90;99.90;;;;;;5041706;28;20031;-42
2023/04/10 00:36:13;;;;;;;9.95;6.07;;;1.90;99.90;;;;;;5056947;28;20025;-42
2023/04/10 00:38:38;;;;;;;10.98;6.65;;;2.00;99.90;;;;;;5041692;28;20044;-42
2023/04/10 00:41:05;;;;;;;10.85;6.13;;;2.00;99.90;;;;;;5044722;28;20036;-42
2023/04/10 00:43:30;;;;;;;9.95;6.13;;;2.00;99.90;;;;;;5061769;28;20490;-42
2023/04/10 00:45:56;;;;;;;9.05;5.97;;;1.90;99.90;;;;;;5044728;28;20021;-42
2023/04/10 00:48:22;;;;;;;7.20;4.93;;;1.90;99.90;;;;;;5034106;28;20064;-42
2023/04/10 00:50:48;;;;;;;5.90;4.05;;;1.70;99.90;;;;;;5045519;28;20056;-42
2023/04/10 00:53:14;;;;;;;7.15;4.68;;;1.70;99.90;;;;;;5046002;28;20029;-43
2023/04/10 00:55:40;;;;;;;8.98;5.15;;;1.70;99.90;;;;;;5061095;28;20029;-42
2023/04/10 00:58:05;;;;;;;9.50;6.25;;;1.70;99.90;;;;;;5042502;28;20068;-42
2023/04/10 01:00:31;;;;;;;9.02;5.68;;;1.70;99.90;;;;;;5043494;28;20052;-42
2023/04/10 01:02:59;;;;;;;11.43;6.40;;;1.70;99.90;;;;;;5043238;28;20393;-42
2023/04/10 01:05:29;;;;;;;11.18;6.07;;;1.70;99.90;;;;;;5052333;28;20029;-42
2023/04/10 01:08:07;;;;;;;11.55;5.88;;;1.70;99.90;;;;;;5041238;28;20066;-42
2023/04/10 01:11:08;;;;;;;8.68;5.95;;;1.80;99.90;;;;;;5041916;28;20048;-42
2023/04/10 01:13:51;;;;;;;9.07;5.47;;;1.70;99.90;;;;;;5023614;28;20059;-42
2023/04/10 01:16:29;;;;;;;5.63;4.93;;;1.70;99.90;;;;;;5057033;28;20119;-42
2023/04/10 01:19:15;;;;;;;8.52;5.55;;;1.60;99.90;;;;;;5042392;28;20533;-42
2023/04/10 01:21:41;;;;;;;9.73;6.35;;;1.50;99.90;;;;;;5037366;28;20497;-42
2023/04/10 01:24:30;;;;;;;10.63;7.18;;;1.50;99.90;;;;;;5036524;28;20057;-42
2023/04/10 01:27:14;;;;;;;10.88;5.85;;;1.50;99.90;;;;;;5039728;28;20051;-42
2023/04/10 01:29:45;;;;;;;9.43;6.20;;;1.50;99.90;;;;;;5043809;28;20048;-42
2023/04/10 01:32:16;;;;;;;10.05;7.03;;;1.50;99.90;;;;;;5044590;28;20029;-43
2023/04/10 01:34:48;;;;;;;9.25;6.35;;;1.40;99.90;;;;;;5042151;28;20025;-42
2023/04/10 01:37:30;;;;;;;8.30;5.70;;;1.30;99.90;;;;;;5042485;28;20068;-42
2023/04/10 01:40:07;;;;;;;9.00;6.13;;;1.30;99.90;;;;;;5075839;28;20040;-42
2023/04/10 01:42:39;;;;;;;9.07;5.72;;;1.20;99.90;;;;;;5039001;28;20363;-42
2023/04/10 01:45:11;;;;;;;76.50;24.13;;;1.30;99.90;;;;;;5053015;28;20074;-42
2023/04/10 01:47:36;;;;;;;26.63;11.63;;;1.30;99.90;;;;;;5045719;28;20108;-42
2023/04/10 01:50:03;;;;;;;18.98;8.10;;;1.30;99.90;;;;;;5039703;28;20159;-42
2023/04/10 01:52:30;;;;;;;12.70;6.60;;;1.30;99.90;;;;;;5043259;28;20045;-42
2023/04/10 01:54:57;;;;;;;10.23;5.25;;;1.30;99.90;;;;;;5041929;28;20057;-42
2023/04/10 01:57:23;;;;;;;6.97;5.40;;;1.30;99.90;;;;;;5048191;28;20032;-42
2023/04/10 01:59:49;;;;;;;13.23;6.43;;;1.30;99.90;;;;;;5045156;28;20017;-42
2023/04/10 02:02:14;;;;;;;19.58;8.15;;;1.30;99.90;;;;;;5045268;28;20405;-42
2023/04/10 02:04:40;;;;;;;13.88;7.10;;;1.20;99.90;;;;;;5041246;28;20034;-42
2023/04/10 02:07:25;;;;;;;11.35;6.93;;;1.10;99.90;;;;;;5057618;28;20028;-45
2023/04/10 02:10:16;;;;;;;43.60;16.45;;;1.10;99.90;;;;;;5051669;28;20166;-42
2023/04/10 02:12:58;;;;;;;92.93;28.50;;;1.10;99.90;;;;;;5057003;28;20030;-42
2023/04/10 02:15:26;;;;;;;51.78;17.50;;;1.10;99.90;;;;;;5042923;28;20073;-42
2023/04/10 02:17:55;;;;;;;30.92;13.63;;;1.10;99.90;;;;;;5048539;28;20029;-42
2023/04/10 02:20:22;;;;;;;24.42;10.68;;;0.90;99.90;;;;;;5049160;28;20487;-42
2023/04/10 02:22:48;;;;;;;44.80;19.33;;;0.90;99.90;;;;;;5066741;28;20397;-42
2023/04/10 02:25:15;;;;;;;30.98;14.80;;;0.90;99.90;;;;;;5046700;28;20170;-42
2023/04/10 02:27:41;;;;;;;17.50;10.65;;;1.00;99.90;;;;;;5052714;28;20040;-42
2023/04/10 02:30:07;;;;;;;12.93;7.97;;;1.00;99.90;;;;;;5051766;28;20021;-42
2023/04/10 02:32:33;;;;;;;16.58;9.35;;;1.10;99.90;;;;;;5050949;28;20371;-42
2023/04/10 02:35:00;;;;;;;16.02;7.60;;;1.00;99.90;;;;;;5053687;28;20159;-42
2023/04/10 02:37:26;;;;;;;8.20;5.47;;;1.00;99.90;;;;;;5060635;28;20441;-42
2023/04/10 02:39:53;;;;;;;9.13;6.03;;;1.00;99.90;;;;;;5048750;28;20028;-42
2023/04/10 02:42:19;;;;;;;11.68;6.78;;;0.90;99.90;;;;;;5045336;28;20034;-42
2023/04/10 02:44:45;;;;;;;7.05;4.97;;;0.90;99.90;;;;;;5052899;28;20027;-42
2023/04/10 02:47:10;;;;;;;8.80;5.25;;;0.80;99.90;;;;;;5046976;28;20379;-42
2023/04/10 02:49:36;;;;;;;7.60;5.50;;;0.80;99.90;;;;;;5044358;28;20033;-42
2023/04/10 02:52:02;;;;;;;10.30;5.45;;;0.80;99.90;;;;;;5045067;28;20056;-42
2023/04/10 02:54:27;;;;;;;10.75;4.97;;;0.80;99.90;;;;;;5048951;28;20545;-42
2023/04/10 02:56:53;;;;;;;10.73;6.07;;;0.70;99.90;;;;;;5047987;28;20446;-42
2023/04/10 02:59:19;;;;;;;10.75;5.95;;;0.60;99.90;;;;;;5053442;28;20060;-42
2023/04/10 03:01:46;;;;;;;12.15;5.70;;;0.60;99.90;;;;;;5044504;28;20087;-42
2023/04/10 03:04:11;;;;;;;8.95;5.80;;;0.70;99.90;;;;;;5047224;28;20025;-42
2023/04/10 03:06:37;;;;;;;14.73;7.53;;;0.70;99.90;;;;;;5043303;28;20054;-42
2023/04/10 03:09:03;;;;;;;8.35;5.65;;;0.70;99.90;;;;;;5044709;28;20025;-42
2023/04/10 03:11:29;;;;;;;10.63;6.57;;;0.70;99.90;;;;;;5040560;28;20112;-42
2023/04/10 03:13:57;;;;;;;8.23;5.28;;;0.70;99.90;;;;;;5047709;28;20049;-42
2023/04/10 03:16:22;;;;;;;10.20;5.88;;;0.70;99.90;;;;;;5046026;28;20033;-43
2023/04/10 03:18:48;;;;;;;11.00;5.78;;;0.70;99.90;;;;;;5044805;28;20631;-42
2023/04/10 03:21:14;;;;;;;11.80;6.63;;;0.70;99.90;;;;;;5040552;28;20122;-43
2023/04/10 03:23:40;;;;;;;7.70;6.03;;;0.60;99.90;;;;;;5065175;28;20462;-43
2023/04/10 03:26:05;;;;;;;8.93;6.20;;;0.70;99.90;;;;;;5045222;28;20033;-42
2023/04/10 03:28:34;;;;;;;10.40;6.07;;;0.60;99.90;;;;;;5050336;28;20033;-42
2023/04/10 03:31:00;;;;;;;8.98;5.95;;;0.60;99.90;;;;;;5045279;28;20036;-42
2023/04/10 03:33:26;;;;;;;5.93;4.40;;;0.60;99.90;;;;;;5044119;28;20489;-41
2023/04/10 03:35:52;;;;;;;4.40;3.45;;;0.60;99.90;;;;;;5040873;28;20083;-42
2023/04/10 03:38:18;;;;;;;4.70;4.03;;;0.50;99.90;;;;;;5047330;28;20024;-42
2023/04/10 03:40:43;;;;;;;3.35;3.05;;;0.40;99.90;;;;;;5055898;28;20033;-42
2023/04/10 03:43:09;;;;;;;6.18;4.43;;;0.40;99.90;;;;;;5059721;28;20029;-42
2023/04/10 03:45:35;;;;;;;6.90;4.60;;;0.30;99.90;;;;;;5051780;28;20036;-42
2023/04/10 03:48:00;;;;;;;6.90;4.45;;;0.40;99.90;;;;;;5045488;28;20418;-42
2023/04/10 03:50:26;;;;;;;5.82;4.43;;;0.30;99.90;;;;;;5042634;28;20559;-42
2023/04/10 03:52:52;;;;;;;7.30;5.15;;;0.30;99.90;;;;;;5041503;28;20041;-42
2023/04/10 03:55:18;;;;;;;8.80;5.53;;;0.30;99.90;;;;;;5048197;28;20025;-42
2023/04/10 03:57:47;;;;;;;7.82;5.15;;;0.40;99.90;;;;;;5037826;28;20033;-42
2023/04/10 04:00:15;;;;;;;6.13;5.22;;;0.30;99.90;;;;;;5039407;28;20386;-43
2023/04/10 04:02:41;;;;;;;6.30;5.63;;;0.30;99.90;;;;;;5038991;28;20026;-42
2023/04/10 04:05:07;;;;;;;9.88;5.38;;;0.30;99.90;;;;;;5043596;28;20383;-42
2023/04/10 04:07:32;;;;;;;11.10;6.55;;;0.20;99.90;;;;;;5041546;28;20078;-42
2023/04/10 04:09:59;;;;;;;13.63;7.05;;;0.20;99.90;;;;;;5044675;28;20490;-42
2023/04/10 04:12:25;;;;;;;11.48;6.03;;;0.20;99.90;;;;;;5039267;28;20037;-42
2023/04/10 04:14:50;;;;;;;8.88;6.40;;;0.20;99.90;;;;;;5042196;28;20085;-43
2023/04/10 04:17:16;;;;;;;11.85;7.05;;;0.30;99.90;;;;;;5043925;28;20034;-42
2023/04/10 04:19:42;;;;;;;9.38;6.05;;;0.30;99.90;;;;;;5041033;28;20025;-42
2023/04/10 04:22:08;;;;;;;7.35;4.43;;;0.30;99.90;;;;;;5041802;28;20234;-42
2023/04/10 04:24:33;;;;;;;5.80;4.13;;;0.20;99.90;;;;;;5049505;28;20036;-42
2023/04/10 04:27:00;;;;;;;7.05;4.22;;;0.10;99.90;;;;;;5042791;28;20063;-42
2023/04/10 04:29:25;;;;;;;5.43;3.88;;;-0.10;99.90;;;;;;5047528;28;20055;-42
2023/04/10 04:31:51;;;;;;;5.95;4.35;;;-0.10;99.90;;;;;;5036918;28;20041;-42
2023/04/10 04:34:17;;;;;;;5.90;4.22;;;-0.10;99.90;;;;;;5044360;28;20032;-42
2023/04/10 04:36:42;;;;;;;6.78;3.80;;;-0.10;99.90;;;;;;5055228;28;20043;-42
2023/04/10 04:39:08;;;;;;;7.80;4.53;;;-0.10;99.90;;;;;;5040463;28;20025;-42
2023/04/10 04:41:34;;;;;;;6.63;4.70;;;0.00;99.90;;;;;;5055442;28;20026;-42
2023/04/10 04:44:01;;;;;;;6.20;3.75;;;0.00;99.90;;;;;;5041588;28;20111;-42
2023/04/10 04:46:27;;;;;;;5.55;4.25;;;0.00;99.90;;;;;;5042532;28;20032;-42
2023/04/10 04:48:52;;;;;;;6.90;6.00;;;-0.10;99.90;;;;;;5056842;28;20028;-42
2023/04/10 04:51:18;;;;;;;7.95;4.90;;;-0.20;99.90;;;;;;5039832;28;20045;-42
2023/04/10 04:53:44;;;;;;;10.52;6.10;;;-0.10;99.90;;;;;;5043399;28;20449;-42
2023/04/10 04:56:11;;;;;;;11.13;5.78;;;-0.10;99.90;;;;;;5046631;28;20047;-42
2023/04/10 04:58:36;;;;;;;10.60;6.05;;;-0.10;99.90;;;;;;5047822;28;20025;-42
2023/04/10 05:01:02;;;;;;;7.40;5.88;;;0.00;99.90;;;;;;5037455;28;20037;-43
2023/04/10 05:03:28;;;;;;;10.40;5.10;;;0.10;99.90;;;;;;5042345;28;20033;-42
2023/04/10 05:05:54;;;;;;;8.38;5.82;;;0.10;99.90;;;;;;5036459;28;20029;-43
2023/04/10 05:08:20;;;;;;;8.15;5.60;;;0.00;99.90;;;;;;5038905;28;20056;-43
2023/04/10 05:10:46;;;;;;;12.68;6.78;;;0.00;99.90;;;;;;5044696;28;20056;-42
2023/04/10 05:13:12;;;;;;;8.50;5.35;;;0.00;99.90;;;;;;5040584;28;20116;-43
2023/04/10 05:15:38;;;;;;;7.60;5.18;;;0.10;99.90;;;;;;5040648;28;20519;-43
2023/04/10 05:18:04;;;;;;;11.05;6.20;;;0.10;99.90;;;;;;5027636;28;20124;-42
2023/04/10 05:20:30;;;;;;;9.80;5.50;;;0.20;99.90;;;;;;5042639;28;20018;-42
2023/04/10 05:22:57;;;;;;;12.02;7.18;;;0.20;99.90;;;;;;5044982;28;20505;-42
2023/04/10 05:25:23;;;;;;;11.80;7.13;;;0.30;99.90;;;;;;5059108;28;20021;-42
2023/04/10 05:27:48;;;;;;;10.98;6.43;;;0.40;99.90;;;;;;5048798;28;20035;-42
2023/04/10 05:30:14;;;;;;;11.57;6.90;;;0.50;99.90;;;;;;5041600;28;20106;-42
2023/04/10 05:32:40;;;;;;;15.73;8.50;;;0.60;99.90;;;;;;5042577;28;20029;-42
2023/04/10 05:35:06;;;;;;;15.45;8.70;;;0.70;99.90;;;;;;5043374;28;20075;-43
2023/04/10 05:37:32;;;;;;;13.65;6.63;;;0.70;99.90;;;;;;5042340;28;20029;-42
2023/04/10 05:39:58;;;;;;;15.25;9.45;;;0.80;99.90;;;;;;5060073;28;20024;-42
2023/04/10 05:42:24;;;;;;;15.93;7.35;;;0.90;99.90;;;;;;5040704;28;20036;-42
2023/04/10 05:44:50;;;;;;;15.38;8.38;;;1.00;99.90;;;;;;5057519;28;20429;-42
2023/04/10 05:47:16;;;;;;;17.42;9.25;;;1.10;99.90;;;;;;5041000;28;20032;-42
2023/04/10 05:49:42;;;;;;;17.50;8.98;;;1.20;99.90;;;;;;5043740;28;20037;-42
2023/04/10 05:52:07;;;;;;;13.90;7.43;;;1.20;99.90;;;;;;5042934;28;20094;-42
2023/04/10 05:54:33;;;;;;;12.23;7.22;;;1.30;99.90;;;;;;5035115;28;20030;-42
2023/04/10 05:56:59;;;;;;;14.30;7.15;;;1.30;99.90;;;;;;5038566;28;20033;-42
2023/04/10 05:59:24;;;;;;;13.05;6.90;;;1.30;99.90;;;;;;5038358;28;20828;-42
2023/04/10 06:01:50;;;;;;;13.48;8.23;;;1.30;99.90;;;;;;5042698;28;20111;-43
2023/04/10 06:04:16;;;;;;;10.30;6.65;;;1.30;99.90;;;;;;5041472;28;20021;-42
2023/04/10 06:06:41;;;;;;;12.68;7.03;;;1.30;99.90;;;;;;5042667;28;20044;-42
2023/04/10 06:09:07;;;;;;;12.00;6.57;;;1.40;99.90;;;;;;5045602;28;20033;-42
2023/04/10 06:11:33;;;;;;;13.85;7.63;;;1.50;99.90;;;;;;5043677;28;20040;-42
2023/04/10 06:13:59;;;;;;;10.02;7.15;;;1.60;99.90;;;;;;5039343;28;20029;-42
2023/04/10 06:16:25;;;;;;;13.32;7.25;;;1.70;99.90;;;;;;5041424;28;20094;-42
2023/04/10 06:18:52;;;;;;;12.23;6.82;;;1.90;99.90;;;;;;5040956;28;20025;-42
2023/04/10 06:21:18;;;;;;;13.18;7.97;;;2.00;99.90;;;;;;5045320;28;20449;-43
2023/04/10 06:23:44;;;;;;;12.48;7.45;;;2.20;99.90;;;;;;5044698;28;20026;-43
2023/04/10 06:26:11;;;;;;;19.05;9.60;;;2.40;99.90;;;;;;5038868;28;20017;-44
2023/04/10 06:28:36;;;;;;;15.85;9.13;;;2.70;99.90;;;;;;5039355;28;20021;-43
2023/04/10 06:31:04;;;;;;;17.17;9.57;;;2.80;99.90;;;;;;5042075;28;20040;-42
2023/04/10 06:33:30;;;;;;;19.67;9.52;;;3.10;99.90;;;;;;5042101;28;20021;-43
2023/04/10 06:35:57;;;;;;;16.92;9.30;;;3.30;99.90;;;;;;5040062;28;20484;-42
2023/04/10 06:38:23;;;;;;;15.73;9.75;;;3.50;99.90;;;;;;5055443;28;20449;-42
2023/04/10 06:40:48;;;;;;;13.88;7.65;;;3.60;99.90;;;;;;5047627;28;20044;-42
2023/04/10 06:43:14;;;;;;;13.60;7.72;;;3.70;99.90;;;;;;5046739;28;20063;-42
2023/04/10 06:45:40;;;;;;;16.83;7.88;;;3.90;99.90;;;;;;5041160;28;20087;-43
2023/04/10 06:48:06;;;;;;;12.32;7.75;;;4.10;99.90;;;;;;5047186;28;20021;-42
2023/04/10 06:50:32;;;;;;;13.90;7.05;;;4.20;99.90;;;;;;5062662;28;20021;-42
2023/04/10 06:52:58;;;;;;;11.48;6.82;;;4.40;99.90;;;;;;5042125;28;20112;-42
2023/04/10 06:55:25;;;;;;;13.30;8.32;;;4.50;99.90;;;;;;5046789;28;20591;-42
2023/04/10 06:57:51;;;;;;;9.07;6.15;;;4.70;99.90;;;;;;5046999;28;20434;-42
2023/04/10 07:00:18;;;;;;;12.73;6.82;;;4.80;99.90;;;;;;5043024;28;20076;-42
2023/04/10 07:02:44;;;;;;;12.63;6.55;;;4.90;99.90;;;;;;5047556;28;20035;-42
2023/04/10 07:05:10;;;;;;;12.07;6.80;;;5.10;99.90;;;;;;5039659;28;20560;-42
2023/04/10 07:07:36;;;;;;;11.30;6.60;;;5.30;99.90;;;;;;5046613;28;20033;-42
2023/04/10 07:10:02;;;;;;;9.63;6.93;;;5.50;99.90;;;;;;5046696;28;20529;-42
2023/04/10 07:12:28;;;;;;;12.60;6.32;;;5.70;99.90;;;;;;5044652;28;20094;-42
2023/04/10 07:14:54;;;;;;;13.20;7.35;;;5.80;99.90;;;;;;5047410;28;20036;-43
2023/04/10 07:17:20;;;;;;;13.18;6.68;;;6.10;99.90;;;;;;5048045;28;20026;-42
2023/04/10 07:19:46;;;;;;;13.18;6.82;;;6.40;99.90;;;;;;5043764;28;20045;-42
2023/04/10 07:22:12;;;;;;;14.18;6.97;;;6.50;99.90;;;;;;5043616;28;20071;-42
2023/04/10 07:24:37;;;;;;;13.30;6.38;;;6.70;99.90;;;;;;5046822;28;20259;-42
2023/04/10 07:27:03;;;;;;;11.50;7.10;;;6.90;99.90;;;;;;5042611;28;20440;-42
2023/04/10 07:29:29;;;;;;;12.20;6.32;;;7.10;99.90;;;;;;5045353;28;20029;-42
2023/04/10 07:31:55;;;;;;;10.38;6.68;;;7.40;99.90;;;;;;5060045;28;20488;-42
2023/04/10 07:34:21;;;;;;;9.15;5.88;;;7.50;99.90;;;;;;5042702;28;20029;-43
2023/04/10 07:36:47;;;;;;;10.13;6.25;;;7.60;99.90;;;;;;5046047;28;20403;-42
2023/04/10 07:39:12;;;;;;;10.77;6.28;;;7.80;99.90;;;;;;5044740;28;20142;-42
2023/04/10 07:41:39;;;;;;;11.82;6.85;;;7.80;99.90;;;;;;5042862;28;20029;-42
2023/04/10 07:44:05;;;;;;;12.90;6.45;;;8.00;99.90;;;;;;5049270;28;20180;-42
2023/04/10 07:46:30;;;;;;;11.75;5.63;;;8.10;99.90;;;;;;5042439;28;20025;-42
2023/04/10 07:48:56;;;;;;;10.65;5.68;;;8.10;99.90;;;;;;5042744;28;20041;-42
2023/04/10 07:51:22;;;;;;;14.70;6.75;;;8.20;99.90;;;;;;5048133;28;20052;-42
2023/04/10 07:53:48;;;;;;;9.98;6.35;;;8.30;99.90;;;;;;5044074;28;20082;-42
2023/04/10 07:56:18;;;;;;;10.75;6.32;;;8.30;99.90;;;;;;5045906;28;20047;-42
2023/04/10 07:58:44;;;;;;;9.45;6.50;;;8.30;99.90;;;;;;5047670;28;20053;-43
2023/04/10 08:01:10;;;;;;;8.90;5.53;;;8.30;99.90;;;;;;5037478;28;20022;-42
2023/04/10 08:03:43;;;;;;;10.50;5.97;;;8.40;99.90;;;;;;5049696;28;20024;-42
2023/04/10 08:06:10;;;;;;;10.00;6.03;;;8.60;99.90;;;;;;5059929;28;20033;-42
2023/04/10 08:08:37;;;;;;;10.43;5.60;;;8.80;99.90;;;;;;5052426;28;20024;-42
2023/04/10 08:11:07;;;;;;;8.40;5.88;;;8.90;99.90;;;;;;5039609;28;20049;-42
2023/04/10 08:13:33;;;;;;;9.23;5.40;;;8.90;99.90;;;;;;5045465;28;20030;-42
2023/04/10 08:15:59;;;;;;;8.50;5.40;;;8.90;99.90;;;;;;5039771;28;20029;-42
2023/04/10 08:18:24;;;;;;;6.88;4.90;;;9.10;99.90;;;;;;5044292;28;20025;-42
2023/04/10 08:20:50;;;;;;;8.85;5.47;;;9.40;99.90;;;;;;5048185;28;20017;-42
2023/04/10 08:23:16;;;;;;;8.70;5.78;;;9.50;99.90;;;;;;5045889;28;20120;-42
2023/04/10 08:25:42;;;;;;;9.30;5.03;;;9.70;99.90;;;;;;5049400;28;20055;-42
2023/04/10 08:28:07;;;;;;;9.00;5.15;;;9.80;99.30;;;;;;5048659;28;20060;-41
2023/04/10 08:30:33;;;;;;;7.78;4.72;;;10.00;98.20;;;;;;5044548;28;20033;-42
2023/04/10 08:32:58;;;;;;;6.90;4.80;;;10.00;97.40;;;;;;5044645;28;20045;-42
2023/04/10 08:35:24;;;;;;;8.68;4.50;;;10.10;99.90;;;;;;5042780;28;20037;-42
2023/04/10 08:37:49;;;;;;;6.97;4.28;;;10.00;97.20;;;;;;5042950;28;20029;-42
2023/04/10 08:40:15;;;;;;;7.40;4.47;;;10.10;97.20;;;;;;5044181;28;20032;-42
2023/04/10 08:42:41;;;;;;;6.75;4.20;;;10.10;97.00;;;;;;5044171;28;20021;-42
2023/04/10 08:45:07;;;;;;;5.60;3.95;;;10.10;96.40;;;;;;5045959;28;20022;-42
2023/04/10 08:47:37;;;;;;;6.40;4.28;;;10.30;93.80;;;;;;5048438;28;20036;-42
2023/04/10 08:50:09;;;;;;;7.13;4.28;;;10.40;91.90;;;;;;5037687;28;20021;-42
2023/04/10 08:52:40;;;;;;;5.20;3.70;;;10.50;92.30;;;;;;5034780;28;20045;-42
2023/04/10 08:55:08;;;;;;;7.68;4.88;;;10.70;91.90;;;;;;5044052;28;20039;-43
2023/04/10 08:57:36;;;;;;;7.83;4.90;;;10.90;92.00;;;;;;5042219;28;20025;-42
2023/04/10 09:00:02;;;;;;;4.93;3.70;;;10.90;91.70;;;;;;5043188;28;20033;-42
2023/04/10 09:02:28;;;;;;;6.65;4.75;;;10.90;87.40;;;;;;5034910;28;20026;-42
2023/04/10 09:04:57;;;;;;;6.53;4.70;;;11.00;84.50;;;;;;5046956;28;20120;-42
2023/04/10 09:07:23;;;;;;;6.40;4.00;;;11.00;96.20;;;;;;5041844;28;20037;-42
2023/04/10 09:09:49;;;;;;;6.75;4.50;;;11.10;89.00;;;;;;5044141;28;20491;-42
2023/04/10 09:12:15;;;;;;;6.50;4.18;;;11.10;89.70;;;;;;5039344;28;20090;-42
2023/04/10 09:14:41;;;;;;;10.00;5.47;;;11.10;87.90;;;;;;5046631;28;20035;-42
2023/04/10 09:17:22;;;;;;;8.85;4.47;;;11.10;94.50;;;;;;5036033;28;20036;-42
2023/04/10 09:19:50;;;;;;;5.22;4.43;;;11.00;88.10;;;;;;5055153;28;20155;-42
2023/04/10 09:22:15;;;;;;;9.10;5.43;;;11.20;93.20;;;;;;5039735;28;20483;-42
2023/04/10 09:24:43;;;;;;;7.50;4.68;;;11.10;80.90;;;;;;5044933;28;20032;-42
2023/04/10 09:27:10;;;;;;;7.55;4.63;;;11.10;81.40;;;;;;5037497;28;20038;-42
2023/04/10 09:29:44;;;;;;;6.13;4.00;;;11.10;91.40;;;;;;5039047;28;20037;-42
2023/04/10 09:32:11;;;;;;;8.32;4.47;;;11.20;82.30;;;;;;5044846;28;20037;-42
2023/04/10 09:34:52;;;;;;;6.40;4.50;;;11.40;86.80;;;;;;5044419;28;20488;-41
2023/04/10 09:37:19;;;;;;;5.38;4.07;;;11.40;81.30;;;;;;5044186;28;20066;-41
2023/04/10 09:39:45;;;;;;;4.68;3.30;;;11.40;78.90;;;;;;5044915;28;20024;-42
2023/04/10 09:42:11;;;;;;;4.68;3.35;;;11.60;85.50;;;;;;5045777;28;20036;-41
2023/04/10 09:44:38;;;;;;;4.82;3.63;;;12.00;70.20;;;;;;5038646;28;20021;-41
2023/04/10 09:47:13;;;;;;;6.45;4.15;;;11.80;74.20;;;;;;5046177;28;20078;-42
2023/04/10 09:49:47;;;;;;;7.20;4.40;;;11.70;79.20;;;;;;5039853;28;20797;-41
2023/04/10 09:52:27;;;;;;;5.85;4.18;;;11.90;76.80;;;;;;5044333;28;20041;-42
2023/04/10 09:54:54;;;;;;;5.60;3.92;;;12.00;81.90;;;;;;5041784;28;20028;-41
2023/04/10 09:57:22;;;;;;;7.30;3.85;;;12.00;71.40;;;;;;5044726;28;20056;-41
2023/04/10 09:59:53;;;;;;;6.15;4.13;;;11.70;71.40;;;;;;5039941;28;20124;-41
2023/04/10 10:02:21;;;;;;;6.72;4.00;;;11.80;74.00;;;;;;5043148;28;20026;-42
2023/04/10 10:04:47;;;;;;;5.75;3.90;;;11.90;76.90;;;;;;5042253;28;20025;-42
2023/04/10 10:07:18;;;;;;;6.68;4.38;;;12.10;64.70;;;;;;5044348;28;20059;-41
2023/04/10 10:09:46;;;;;;;4.20;3.40;;;12.10;66.80;;;;;;5039752;28;20451;-42
2023/04/10 10:12:15;;;;;;;6.85;4.10;;;12.00;66.90;;;;;;5042570;28;20112;-42
2023/04/10 10:14:59;;;;;;;5.85;4.07;;;12.30;69.30;;;;;;5042453;28;20059;-42
2023/04/10 10:17:30;;;;;;;5.53;3.65;;;12.40;73.30;;;;;;5059823;28;20087;-42
2023/04/10 10:19:59;;;;;;;5.57;3.90;;;12.40;69.00;;;;;;5042238;28;20173;-42
2023/04/10 10:22:27;;;;;;;5.90;4.05;;;12.50;63.80;;;;;;5047404;28;20099;-42
2023/04/10 10:24:55;;;;;;;6.03;4.30;;;12.80;65.70;;;;;;5044796;28;20090;-42
2023/04/10 10:27:23;;;;;;;6.10;3.85;;;12.70;69.30;;;;;;5048858;28;20029;-42
2023/04/10 10:29:52;;;;;;;4.93;3.38;;;12.70;63.90;;;;;;5074464;28;20072;-42
2023/04/10 10:32:19;;;;;;;5.30;3.88;;;13.10;59.40;;;;;;5046858;28;20566;-42
2023/04/10 10:34:46;;;;;;;9.27;3.83;;;13.30;60.30;;;;;;5060137;28;20038;-42
2023/04/10 10:37:12;;;;;;;4.15;3.22;;;13.40;56.70;;;;;;5043596;28;20136;-41
2023/04/10 10:39:52;;;;;;;6.93;3.60;;;13.40;58.70;;;;;;5048072;28;20104;-42
2023/04/10 10:42:23;;;;;;;4.25;3.50;;;13.20;61.10;;;;;;5047136;28;20025;-42
2023/04/10 10:45:11;;;;;;;6.22;3.63;;;13.30;60.50;;;;;;5042825;28;20033;-42
2023/04/10 10:47:44;;;;;;;5.82;3.78;;;13.30;57.60;;;;;;5047017;28;20060;-42
2023/04/10 10:50:10;;;;;;;3.90;3.08;;;13.40;59.30;;;;;;5042798;28;20419;-42
2023/04/10 10:52:51;;;;;;;5.03;3.47;;;13.30;62.50;;;;;;5053044;28;20056;-42
2023/04/10 10:55:35;;;;;;;4.72;3.30;;;13.30;65.60;;;;;;5060974;28;20082;-42
2023/04/10 10:58:04;;;;;;;5.47;3.38;;;13.40;62.20;;;;;;5048721;28;20598;-42
2023/04/10 11:00:48;;;;;;;;;;;13.20;56.20;;;;;;5050454;28;20029;-42
2023/04/10 11:03:14;;;;;;;3.80;2.90;;;13.30;56.60;;;;;;5047374;28;19909;-42
2023/04/10 11:05:58;;;;;;;2.97;2.40;;;13.90;55.60;;;;;;5044838;28;20075;-42
2023/04/10 11:08:32;;;;;;;3.78;2.88;;;13.90;50.30;;;;;;5048741;28;20379;-42
2023/04/10 11:10:58;;;;;;;4.63;3.40;;;13.90;51.80;;;;;;5042507;28;20448;-42
2023/04/10 11:13:24;;;;;;;3.88;2.53;;;13.90;55.30;;;;;;5047316;28;20112;-41
2023/04/10 11:15:51;;;;;;;5.53;3.67;;;13.80;50.40;;;;;;5045023;28;20751;-41
2023/04/10 11:18:16;;;;;;;6.30;3.65;;;13.80;56.00;;;;;;5048545;28;20032;-42
2023/04/10 11:21:08;;;;;;;4.88;3.35;;;13.90;53.50;;;;;;5039443;28;20025;-41
2023/04/10 11:23:34;;;;;;;4.93;3.28;;;13.90;52.90;;;;;;5036076;28;20411;-41
2023/04/10 11:26:01;;;;;;;3.13;2.60;;;14.10;56.30;;;;;;5039331;28;20021;-41
2023/04/10 11:28:35;;;;;;;3.33;2.30;;;14.20;51.30;;;;;;5043057;28;20167;-42
2023/04/10 11:31:23;;;;;;;2.78;2.28;;;14.50;50.30;;;;;;5049639;28;20037;-41
2023/04/10 11:33:59;;;;;;;3.55;2.90;;;14.60;46.80;;;;;;5046921;28;20394;-41
2023/04/10 11:36:26;;;;;;;3.72;2.90;;;14.60;51.90;;;;;;5062160;28;20033;-41
2023/04/10 11:38:59;;;;;;;5.35;3.17;;;14.80;54.10;;;;;;5044180;28;20060;-41
2023/04/10 11:41:30;;;;;;;3.45;2.53;;;14.60;55.70;;;;;;5043714;28;20433;-42
2023/04/10 11:43:57;;;;;;;4.07;2.92;;;14.20;50.80;;;;;;5047334;28;20061;-41
2023/04/10 11:46:23;;;;;;;3.08;2.75;;;14.10;47.90;;;;;;5044958;28;20056;-42
2023/04/10 11:49:01;;;;;;;3.25;2.60;;;14.30;52.20;;;;;;5052937;28;20123;-43
2023/04/10 11:51:28;;;;;;;;;;;14.40;49.30;;;;;;5045526;28;20048;-42
2023/04/10 11:54:06;;;;;;;3.97;2.22;;;14.50;49.30;;;;;;5048284;28;19916;-42
2023/04/10 11:56:31;;;;;;;3.95;2.72;;;14.60;49.80;;;;;;5050119;28;20110;-42
2023/04/10 11:58:57;;;;;;;4.25;2.60;;;14.80;49.00;;;;;;5049496;28;20032;-41
2023/04/10 12:01:24;;;;;;;3.58;2.75;;;14.70;49.40;;;;;;5047914;28;20047;-42
2023/04/10 12:03:49;;;;;;;3.75;3.10;;;14.40;49.80;;;;;;5041291;28;20067;-42
2023/04/10 12:06:18;;;;;;;4.05;2.70;;;14.20;49.40;;;;;;5047589;28;20087;-42
2023/04/10 12:08:46;;;;;;;4.05;2.70;;;14.10;48.40;;;;;;5055194;28;20487;-42
2023/04/10 12:11:13;;;;;;;4.32;2.90;;;13.90;48.60;;;;;;5041278;28;20028;-42
2023/04/10 12:13:39;;;;;;;3.60;2.85;;;13.80;47.40;;;;;;5059064;28;20094;-42
2023/04/10 12:16:09;;;;;;;3.83;2.70;;;13.90;48.70;;;;;;5045194;28;20326;-41
2023/04/10 12:18:35;;;;;;;3.75;2.80;;;14.10;47.90;;;;;;5040764;28;20043;-41
2023/04/10 12:21:01;;;;;;;3.55;3.03;;;14.30;45.40;;;;;;5041021;28;20037;-41
2023/04/10 12:23:28;;;;;;;2.90;2.42;;;14.50;47.40;;;;;;5044140;28;20045;-41
2023/04/10 12:26:15;;;;;;;3.90;2.88;;;14.80;49.00;;;;;;5041589;28;20033;-41
2023/04/10 12:28:49;;;;;;;4.88;3.00;;;14.90;43.40;;;;;;5042119;28;20395;-41
2023/04/10 12:31:15;;;;;;;3.97;2.88;;;14.70;53.90;;;;;;5072743;28;20847;-41
2023/04/10 12:33:47;;;;;;;5.30;3.20;;;14.30;50.20;;;;;;5044109;28;20100;-42
2023/04/10 12:36:20;;;;;;;4.13;3.17;;;14.10;53.50;;;;;;5045481;28;20025;-41
2023/04/10 12:38:46;;;;;;;3.22;2.65;;;14.10;52.20;;;;;;5052518;28;20059;-42
2023/04/10 12:41:19;;;;;;;2.88;2.63;;;14.10;51.70;;;;;;5044579;28;20098;-42
2023/04/10 12:43:44;;;;;;;4.22;3.15;;;14.20;52.00;;;;;;5048572;28;20449;-42
2023/04/10 12:46:25;;;;;;;3.80;2.50;;;14.30;54.60;;;;;;5041568;28;20032;-42
2023/04/10 12:48:51;;;;;;;2.85;2.38;;;14.40;48.60;;;;;;5050043;28;20023;-42
2023/04/10 12:51:16;;;;;;;3.75;2.65;;;14.60;49.50;;;;;;5044413;28;20050;-42
2023/04/10 12:53:44;;;;;;;4.90;2.80;;;14.80;44.20;;;;;;5044512;28;20489;-41
2023/04/10 12:56:11;;;;;;;4.05;2.88;;;14.80;45.90;;;;;;5047169;28;20529;-41